Schawana, Washington
Current Conditions -  °F | °C
As of 4:56 PM on Monday 26 Jan 2015 (Local Time) from K1YT Reporting Station
Moderate Fog Moderate Fog  
Wind Chill: 36°   Ceiling: 200
Heat Index: 36°   Visibility: 0.12mi
Dew Point: 36°   Wind: 3mph
Humidity: 98%   Direction: 320°NW
Pressure: 30.02"   Gusts: NA
Location:  46.8623°N, 119.858°W
Report Text: K1YT 270056Z AUTO 32003KT 1/8SM FG VV002 02/02 A3002 RMK AO2 SLPNO T00230020
Loading
Personal Weather Stations






























Interactive Weather Map New forecast layout! Learn more

10-Day Weather Forecast

Advertisements
Track Severe Weather on mobile